sensor_id;sensor_type;location;lat;lon;timestamp;P1;durP1;ratioP1;P2;durP2;ratioP2
27305;SDS011;14792;50.886;6.468;2022-10-22T00:00:20;17.62;;;4.03;;
27305;SDS011;14792;50.886;6.468;2022-10-22T00:03:21;14.33;;;3.92;;
27305;SDS011;14792;50.886;6.468;2022-10-22T00:06:23;15.80;;;4.60;;
27305;SDS011;14792;50.886;6.468;2022-10-22T00:09:25;15.88;;;4.00;;
27305;SDS011;14792;50.886;6.468;2022-10-22T00:12:26;16.75;;;3.58;;
27305;SDS011;14792;50.886;6.468;2022-10-22T00:15:28;15.95;;;3.65;;
27305;SDS011;14792;50.886;6.468;2022-10-22T00:18:30;11.38;;;3.52;;
27305;SDS011;14792;50.886;6.468;2022-10-22T00:21:32;14.90;;;3.87;;
27305;SDS011;14792;50.886;6.468;2022-10-22T00:24:34;14.93;;;3.62;;
27305;SDS011;14792;50.886;6.468;2022-10-22T00:27:35;16.75;;;4.03;;
27305;SDS011;14792;50.886;6.468;2022-10-22T00:30:37;11.80;;;4.03;;
27305;SDS011;14792;50.886;6.468;2022-10-22T00:33:38;17.70;;;4.75;;
27305;SDS011;14792;50.886;6.468;2022-10-22T00:36:40;10.65;;;3.90;;
27305;SDS011;14792;50.886;6.468;2022-10-22T00:39:42;14.00;;;3.92;;
27305;SDS011;14792;50.886;6.468;2022-10-22T00:42:43;7.45;;;3.72;;
27305;SDS011;14792;50.886;6.468;2022-10-22T00:45:45;12.85;;;3.70;;
27305;SDS011;14792;50.886;6.468;2022-10-22T00:48:46;11.57;;;4.70;;
27305;SDS011;14792;50.886;6.468;2022-10-22T00:51:48;14.13;;;3.95;;
27305;SDS011;14792;50.886;6.468;2022-10-22T00:54:50;12.33;;;4.25;;
27305;SDS011;14792;50.886;6.468;2022-10-22T00:57:52;14.23;;;4.40;;
27305;SDS011;14792;50.886;6.468;2022-10-22T01:00:53;17.75;;;4.15;;
27305;SDS011;14792;50.886;6.468;2022-10-22T01:03:55;18.65;;;4.42;;
27305;SDS011;14792;50.886;6.468;2022-10-22T01:06:56;17.10;;;5.10;;
27305;SDS011;14792;50.886;6.468;2022-10-22T01:10:09;18.87;;;4.75;;
27305;SDS011;14792;50.886;6.468;2022-10-22T01:13:12;17.87;;;4.80;;
27305;SDS011;14792;50.886;6.468;2022-10-22T01:16:10;10.18;;;3.77;;
27305;SDS011;14792;50.886;6.468;2022-10-22T01:22:38;12.78;;;4.08;;
27305;SDS011;14792;50.886;6.468;2022-10-22T01:25:36;12.53;;;3.77;;
27305;SDS011;14792;50.886;6.468;2022-10-22T01:31:55;12.35;;;4.08;;
27305;SDS011;14792;50.886;6.468;2022-10-22T01:35:02;8.08;;;3.90;;
27305;SDS011;14792;50.886;6.468;2022-10-22T01:38:04;16.00;;;4.55;;
27305;SDS011;14792;50.886;6.468;2022-10-22T01:41:04;11.00;;;4.42;;
27305;SDS011;14792;50.886;6.468;2022-10-22T01:44:05;11.93;;;4.20;;
27305;SDS011;14792;50.886;6.468;2022-10-22T01:47:13;11.83;;;3.60;;
27305;SDS011;14792;50.886;6.468;2022-10-22T01:50:14;15.80;;;4.05;;
27305;SDS011;14792;50.886;6.468;2022-10-22T01:53:17;17.27;;;4.47;;
27305;SDS011;14792;50.886;6.468;2022-10-22T02:00:05;14.45;;;4.05;;
27305;SDS011;14792;50.886;6.468;2022-10-22T02:03:09;13.68;;;4.28;;
27305;SDS011;14792;50.886;6.468;2022-10-22T02:06:12;14.40;;;4.08;;
27305;SDS011;14792;50.886;6.468;2022-10-22T02:09:12;10.98;;;4.25;;
27305;SDS011;14792;50.886;6.468;2022-10-22T02:12:13;10.88;;;3.77;;
27305;SDS011;14792;50.886;6.468;2022-10-22T02:15:14;16.40;;;4.50;;
27305;SDS011;14792;50.886;6.468;2022-10-22T02:18:16;14.07;;;4.47;;
27305;SDS011;14792;50.886;6.468;2022-10-22T02:21:17;11.97;;;4.30;;
27305;SDS011;14792;50.886;6.468;2022-10-22T02:24:19;17.15;;;4.40;;
27305;SDS011;14792;50.886;6.468;2022-10-22T02:27:23;13.68;;;4.95;;
27305;SDS011;14792;50.886;6.468;2022-10-22T02:30:23;14.47;;;4.33;;
27305;SDS011;14792;50.886;6.468;2022-10-22T02:33:25;15.15;;;4.35;;
27305;SDS011;14792;50.886;6.468;2022-10-22T02:36:28;9.85;;;4.58;;
27305;SDS011;14792;50.886;6.468;2022-10-22T02:39:30;14.87;;;5.03;;
27305;SDS011;14792;50.886;6.468;2022-10-22T02:45:33;11.63;;;3.87;;
27305;SDS011;14792;50.886;6.468;2022-10-22T02:48:35;15.68;;;5.03;;
27305;SDS011;14792;50.886;6.468;2022-10-22T02:51:36;10.65;;;4.62;;
27305;SDS011;14792;50.886;6.468;2022-10-22T02:54:38;9.85;;;4.60;;
27305;SDS011;14792;50.886;6.468;2022-10-22T02:57:39;13.43;;;5.17;;
27305;SDS011;14792;50.886;6.468;2022-10-22T03:00:41;9.73;;;4.80;;
27305;SDS011;14792;50.886;6.468;2022-10-22T03:03:42;13.00;;;5.40;;
27305;SDS011;14792;50.886;6.468;2022-10-22T03:06:44;13.28;;;4.97;;
27305;SDS011;14792;50.886;6.468;2022-10-22T03:09:46;11.73;;;5.90;;
27305;SDS011;14792;50.886;6.468;2022-10-22T03:12:47;12.82;;;5.22;;
27305;SDS011;14792;50.886;6.468;2022-10-22T03:15:49;15.45;;;5.53;;
27305;SDS011;14792;50.886;6.468;2022-10-22T03:21:53;12.23;;;5.95;;
27305;SDS011;14792;50.886;6.468;2022-10-22T03:24:54;14.90;;;6.05;;
27305;SDS011;14792;50.886;6.468;2022-10-22T03:27:56;14.90;;;5.72;;
27305;SDS011;14792;50.886;6.468;2022-10-22T03:30:57;15.70;;;6.17;;
27305;SDS011;14792;50.886;6.468;2022-10-22T03:33:59;10.05;;;5.28;;
27305;SDS011;14792;50.886;6.468;2022-10-22T03:37:00;12.23;;;5.60;;
27305;SDS011;14792;50.886;6.468;2022-10-22T03:40:03;12.80;;;6.12;;
27305;SDS011;14792;50.886;6.468;2022-10-22T03:43:04;16.73;;;6.05;;
27305;SDS011;14792;50.886;6.468;2022-10-22T03:46:05;14.18;;;5.70;;
27305;SDS011;14792;50.886;6.468;2022-10-22T03:49:07;13.58;;;6.20;;
27305;SDS011;14792;50.886;6.468;2022-10-22T03:52:09;10.63;;;5.90;;
27305;SDS011;14792;50.886;6.468;2022-10-22T03:55:10;14.33;;;5.95;;
27305;SDS011;14792;50.886;6.468;2022-10-22T03:58:12;18.00;;;6.92;;
27305;SDS011;14792;50.886;6.468;2022-10-22T04:01:13;10.55;;;6.72;;
27305;SDS011;14792;50.886;6.468;2022-10-22T04:04:15;13.65;;;6.87;;
27305;SDS011;14792;50.886;6.468;2022-10-22T04:07:16;17.52;;;7.05;;
27305;SDS011;14792;50.886;6.468;2022-10-22T04:10:18;13.60;;;6.60;;
27305;SDS011;14792;50.886;6.468;2022-10-22T04:13:20;15.90;;;7.00;;
27305;SDS011;14792;50.886;6.468;2022-10-22T04:16:22;15.58;;;6.70;;
27305;SDS011;14792;50.886;6.468;2022-10-22T04:19:23;15.30;;;6.72;;
27305;SDS011;14792;50.886;6.468;2022-10-22T04:22:24;18.10;;;7.33;;
27305;SDS011;14792;50.886;6.468;2022-10-22T04:25:26;16.10;;;7.42;;
27305;SDS011;14792;50.886;6.468;2022-10-22T04:28:28;13.95;;;7.58;;
27305;SDS011;14792;50.886;6.468;2022-10-22T04:31:29;12.05;;;6.55;;
27305;SDS011;14792;50.886;6.468;2022-10-22T04:34:31;10.40;;;6.83;;
27305;SDS011;14792;50.886;6.468;2022-10-22T04:37:33;15.35;;;7.42;;
27305;SDS011;14792;50.886;6.468;2022-10-22T04:40:34;13.78;;;7.60;;
27305;SDS011;14792;50.886;6.468;2022-10-22T04:43:36;16.27;;;8.03;;
27305;SDS011;14792;50.886;6.468;2022-10-22T04:46:37;14.03;;;8.13;;
27305;SDS011;14792;50.886;6.468;2022-10-22T04:49:39;13.60;;;8.00;;
27305;SDS011;14792;50.886;6.468;2022-10-22T04:52:40;18.82;;;8.20;;
27305;SDS011;14792;50.886;6.468;2022-10-22T04:55:42;19.67;;;7.55;;
27305;SDS011;14792;50.886;6.468;2022-10-22T04:58:44;15.53;;;7.40;;
27305;SDS011;14792;50.886;6.468;2022-10-22T05:01:45;15.20;;;8.20;;
27305;SDS011;14792;50.886;6.468;2022-10-22T05:04:47;21.25;;;8.73;;
27305;SDS011;14792;50.886;6.468;2022-10-22T05:07:49;13.65;;;7.35;;
27305;SDS011;14792;50.886;6.468;2022-10-22T05:10:50;11.35;;;6.10;;
27305;SDS011;14792;50.886;6.468;2022-10-22T05:13:52;22.67;;;6.47;;
27305;SDS011;14792;50.886;6.468;2022-10-22T05:16:53;15.70;;;5.42;;
27305;SDS011;14792;50.886;6.468;2022-10-22T05:19:55;11.38;;;5.12;;
27305;SDS011;14792;50.886;6.468;2022-10-22T05:22:56;12.23;;;4.17;;
27305;SDS011;14792;50.886;6.468;2022-10-22T05:26:02;12.03;;;3.65;;
27305;SDS011;14792;50.886;6.468;2022-10-22T05:29:03;12.95;;;3.15;;
27305;SDS011;14792;50.886;6.468;2022-10-22T05:32:04;10.75;;;3.17;;
27305;SDS011;14792;50.886;6.468;2022-10-22T05:35:06;6.67;;;2.87;;
27305;SDS011;14792;50.886;6.468;2022-10-22T05:38:07;10.38;;;2.62;;
27305;SDS011;14792;50.886;6.468;2022-10-22T05:41:10;7.83;;;2.98;;
27305;SDS011;14792;50.886;6.468;2022-10-22T05:44:11;14.28;;;2.90;;
27305;SDS011;14792;50.886;6.468;2022-10-22T05:47:12;12.70;;;3.15;;
27305;SDS011;14792;50.886;6.468;2022-10-22T05:50:14;8.23;;;3.12;;
27305;SDS011;14792;50.886;6.468;2022-10-22T05:53:16;8.08;;;3.00;;
27305;SDS011;14792;50.886;6.468;2022-10-22T05:56:17;12.82;;;3.20;;
27305;SDS011;14792;50.886;6.468;2022-10-22T05:59:19;11.60;;;3.02;;
27305;SDS011;14792;50.886;6.468;2022-10-22T06:02:20;8.95;;;2.40;;
27305;SDS011;14792;50.886;6.468;2022-10-22T06:05:22;11.75;;;2.58;;
27305;SDS011;14792;50.886;6.468;2022-10-22T06:08:23;8.28;;;2.45;;
27305;SDS011;14792;50.886;6.468;2022-10-22T06:11:25;9.10;;;2.80;;
27305;SDS011;14792;50.886;6.468;2022-10-22T06:14:27;3.85;;;2.00;;
27305;SDS011;14792;50.886;6.468;2022-10-22T06:17:28;10.18;;;2.62;;
27305;SDS011;14792;50.886;6.468;2022-10-22T06:20:32;11.95;;;2.77;;
27305;SDS011;14792;50.886;6.468;2022-10-22T06:23:32;8.95;;;2.67;;
27305;SDS011;14792;50.886;6.468;2022-10-22T06:26:34;8.75;;;2.55;;
27305;SDS011;14792;50.886;6.468;2022-10-22T06:29:36;17.12;;;2.95;;
27305;SDS011;14792;50.886;6.468;2022-10-22T06:32:37;12.07;;;2.20;;
27305;SDS011;14792;50.886;6.468;2022-10-22T06:35:39;6.10;;;2.50;;
27305;SDS011;14792;50.886;6.468;2022-10-22T06:38:41;13.50;;;3.83;;
27305;SDS011;14792;50.886;6.468;2022-10-22T06:41:42;14.75;;;2.60;;
27305;SDS011;14792;50.886;6.468;2022-10-22T06:44:44;12.80;;;2.98;;
27305;SDS011;14792;50.886;6.468;2022-10-22T06:47:46;10.65;;;2.55;;
27305;SDS011;14792;50.886;6.468;2022-10-22T06:50:47;7.28;;;2.10;;
27305;SDS011;14792;50.886;6.468;2022-10-22T06:53:49;10.55;;;2.72;;
27305;SDS011;14792;50.886;6.468;2022-10-22T06:56:51;12.60;;;3.45;;
27305;SDS011;14792;50.886;6.468;2022-10-22T06:59:52;8.93;;;2.17;;
27305;SDS011;14792;50.886;6.468;2022-10-22T07:02:54;13.13;;;2.58;;
27305;SDS011;14792;50.886;6.468;2022-10-22T07:06:02;9.80;;;2.30;;
27305;SDS011;14792;50.886;6.468;2022-10-22T07:09:00;10.85;;;2.47;;
27305;SDS011;14792;50.886;6.468;2022-10-22T07:12:02;13.18;;;2.10;;
27305;SDS011;14792;50.886;6.468;2022-10-22T07:15:04;10.23;;;2.42;;
27305;SDS011;14792;50.886;6.468;2022-10-22T07:18:07;11.18;;;2.72;;
27305;SDS011;14792;50.886;6.468;2022-10-22T07:21:10;12.58;;;2.37;;
27305;SDS011;14792;50.886;6.468;2022-10-22T07:24:11;8.95;;;2.22;;
27305;SDS011;14792;50.886;6.468;2022-10-22T07:27:13;11.22;;;3.40;;
27305;SDS011;14792;50.886;6.468;2022-10-22T07:30:14;13.03;;;2.35;;
27305;SDS011;14792;50.886;6.468;2022-10-22T07:33:16;10.05;;;2.12;;
27305;SDS011;14792;50.886;6.468;2022-10-22T07:36:18;9.15;;;2.55;;
27305;SDS011;14792;50.886;6.468;2022-10-22T07:39:19;9.13;;;2.22;;
27305;SDS011;14792;50.886;6.468;2022-10-22T07:42:21;9.15;;;2.72;;
27305;SDS011;14792;50.886;6.468;2022-10-22T07:45:22;8.90;;;2.77;;
27305;SDS011;14792;50.886;6.468;2022-10-22T07:48:24;13.28;;;2.30;;
27305;SDS011;14792;50.886;6.468;2022-10-22T07:51:26;12.37;;;2.22;;
27305;SDS011;14792;50.886;6.468;2022-10-22T07:54:27;9.55;;;1.85;;
27305;SDS011;14792;50.886;6.468;2022-10-22T07:57:29;11.70;;;2.65;;
27305;SDS011;14792;50.886;6.468;2022-10-22T08:00:31;9.53;;;2.12;;
27305;SDS011;14792;50.886;6.468;2022-10-22T08:03:33;10.53;;;2.00;;
27305;SDS011;14792;50.886;6.468;2022-10-22T08:06:34;8.50;;;2.55;;
27305;SDS011;14792;50.886;6.468;2022-10-22T08:09:36;11.78;;;1.87;;
27305;SDS011;14792;50.886;6.468;2022-10-22T08:12:38;10.58;;;2.12;;
27305;SDS011;14792;50.886;6.468;2022-10-22T08:15:40;11.10;;;2.08;;
27305;SDS011;14792;50.886;6.468;2022-10-22T08:18:41;10.65;;;2.17;;
27305;SDS011;14792;50.886;6.468;2022-10-22T08:21:43;17.07;;;2.50;;
27305;SDS011;14792;50.886;6.468;2022-10-22T08:24:44;10.70;;;2.30;;
27305;SDS011;14792;50.886;6.468;2022-10-22T08:27:46;8.73;;;2.02;;
27305;SDS011;14792;50.886;6.468;2022-10-22T08:30:47;7.55;;;1.75;;
27305;SDS011;14792;50.886;6.468;2022-10-22T08:33:49;14.60;;;2.27;;
27305;SDS011;14792;50.886;6.468;2022-10-22T08:36:51;12.73;;;2.17;;
27305;SDS011;14792;50.886;6.468;2022-10-22T08:39:52;10.78;;;2.27;;
27305;SDS011;14792;50.886;6.468;2022-10-22T08:43:02;6.20;;;1.90;;
27305;SDS011;14792;50.886;6.468;2022-10-22T08:46:05;13.05;;;2.05;;
27305;SDS011;14792;50.886;6.468;2022-10-22T08:49:08;13.38;;;1.95;;
27305;SDS011;14792;50.886;6.468;2022-10-22T08:52:11;9.58;;;1.65;;
27305;SDS011;14792;50.886;6.468;2022-10-22T08:55:15;9.88;;;1.85;;
27305;SDS011;14792;50.886;6.468;2022-10-22T09:01:42;13.58;;;1.90;;
27305;SDS011;14792;50.886;6.468;2022-10-22T09:04:44;8.83;;;1.75;;
27305;SDS011;14792;50.886;6.468;2022-10-22T09:07:45;10.68;;;1.52;;
27305;SDS011;14792;50.886;6.468;2022-10-22T09:10:48;8.23;;;1.52;;
27305;SDS011;14792;50.886;6.468;2022-10-22T09:13:48;12.65;;;1.98;;
27305;SDS011;14792;50.886;6.468;2022-10-22T09:20:15;11.93;;;2.15;;
27305;SDS011;14792;50.886;6.468;2022-10-22T09:26:21;7.75;;;1.50;;
27305;SDS011;14792;50.886;6.468;2022-10-22T09:29:24;4.58;;;1.50;;
27305;SDS011;14792;50.886;6.468;2022-10-22T09:32:25;11.10;;;1.60;;
27305;SDS011;14792;50.886;6.468;2022-10-22T09:35:27;9.80;;;1.77;;
27305;SDS011;14792;50.886;6.468;2022-10-22T09:38:29;18.20;;;2.37;;
27305;SDS011;14792;50.886;6.468;2022-10-22T09:41:30;4.20;;;1.37;;
27305;SDS011;14792;50.886;6.468;2022-10-22T09:44:33;8.55;;;1.60;;
27305;SDS011;14792;50.886;6.468;2022-10-22T09:47:38;11.10;;;1.60;;
27305;SDS011;14792;50.886;6.468;2022-10-22T09:50:42;8.73;;;1.57;;
27305;SDS011;14792;50.886;6.468;2022-10-22T09:53:44;8.95;;;1.77;;
27305;SDS011;14792;50.886;6.468;2022-10-22T09:59:53;8.90;;;1.65;;
27305;SDS011;14792;50.886;6.468;2022-10-22T10:02:57;11.43;;;1.50;;
27305;SDS011;14792;50.886;6.468;2022-10-22T10:05:59;8.65;;;1.55;;
27305;SDS011;14792;50.886;6.468;2022-10-22T10:09:00;8.88;;;1.40;;
27305;SDS011;14792;50.886;6.468;2022-10-22T10:18:24;9.00;;;1.27;;
27305;SDS011;14792;50.886;6.468;2022-10-22T10:21:28;10.15;;;1.55;;
27305;SDS011;14792;50.886;6.468;2022-10-22T10:24:34;8.38;;;1.40;;
27305;SDS011;14792;50.886;6.468;2022-10-22T10:30:45;7.65;;;1.67;;
27305;SDS011;14792;50.886;6.468;2022-10-22T10:33:46;10.80;;;1.52;;
27305;SDS011;14792;50.886;6.468;2022-10-22T10:37:01;9.25;;;1.62;;
27305;SDS011;14792;50.886;6.468;2022-10-22T10:40:04;9.45;;;1.60;;
27305;SDS011;14792;50.886;6.468;2022-10-22T10:46:45;8.10;;;2.80;;
27305;SDS011;14792;50.886;6.468;2022-10-22T10:49:53;4.47;;;1.40;;
27305;SDS011;14792;50.886;6.468;2022-10-22T10:53:11;7.95;;;1.82;;
27305;SDS011;14792;50.886;6.468;2022-10-22T10:56:16;6.83;;;2.00;;
27305;SDS011;14792;50.886;6.468;2022-10-22T11:06:22;11.38;;;2.72;;
27305;SDS011;14792;50.886;6.468;2022-10-22T11:09:23;12.20;;;4.35;;
27305;SDS011;14792;50.886;6.468;2022-10-22T11:12:26;10.40;;;2.10;;
27305;SDS011;14792;50.886;6.468;2022-10-22T11:15:34;8.08;;;2.47;;
27305;SDS011;14792;50.886;6.468;2022-10-22T11:18:36;9.93;;;4.90;;
27305;SDS011;14792;50.886;6.468;2022-10-22T11:21:40;10.55;;;3.02;;
27305;SDS011;14792;50.886;6.468;2022-10-22T11:25:11;10.45;;;4.22;;
27305;SDS011;14792;50.886;6.468;2022-10-22T11:28:13;11.75;;;6.97;;
27305;SDS011;14792;50.886;6.468;2022-10-22T11:31:33;11.08;;;3.25;;
27305;SDS011;14792;50.886;6.468;2022-10-22T11:34:37;6.75;;;2.25;;
27305;SDS011;14792;50.886;6.468;2022-10-22T11:37:36;4.95;;;1.77;;
27305;SDS011;14792;50.886;6.468;2022-10-22T11:40:38;10.13;;;4.62;;
27305;SDS011;14792;50.886;6.468;2022-10-22T11:43:56;8.35;;;3.20;;
27305;SDS011;14792;50.886;6.468;2022-10-22T11:47:08;9.05;;;2.17;;
27305;SDS011;14792;50.886;6.468;2022-10-22T11:50:25;7.72;;;2.70;;
27305;SDS011;14792;50.886;6.468;2022-10-22T11:53:30;7.15;;;2.27;;
27305;SDS011;14792;50.886;6.468;2022-10-22T11:56:40;8.40;;;1.95;;
27305;SDS011;14792;50.886;6.468;2022-10-22T11:59:39;8.68;;;2.47;;
27305;SDS011;14792;50.886;6.468;2022-10-22T12:02:40;7.22;;;2.12;;
27305;SDS011;14792;50.886;6.468;2022-10-22T12:05:42;7.10;;;1.98;;
27305;SDS011;14792;50.886;6.468;2022-10-22T12:11:50;8.90;;;1.30;;
27305;SDS011;14792;50.886;6.468;2022-10-22T12:18:01;6.67;;;1.77;;
27305;SDS011;14792;50.886;6.468;2022-10-22T12:21:02;6.92;;;1.45;;
27305;SDS011;14792;50.886;6.468;2022-10-22T12:24:04;6.55;;;1.92;;
27305;SDS011;14792;50.886;6.468;2022-10-22T12:27:19;10.15;;;2.22;;
27305;SDS011;14792;50.886;6.468;2022-10-22T12:30:30;5.37;;;1.67;;
27305;SDS011;14792;50.886;6.468;2022-10-22T12:33:30;5.72;;;1.67;;
27305;SDS011;14792;50.886;6.468;2022-10-22T12:36:33;6.35;;;1.82;;
27305;SDS011;14792;50.886;6.468;2022-10-22T12:39:35;4.28;;;1.30;;
27305;SDS011;14792;50.886;6.468;2022-10-22T12:45:37;10.43;;;1.50;;
27305;SDS011;14792;50.886;6.468;2022-10-22T12:48:40;5.75;;;1.30;;
27305;SDS011;14792;50.886;6.468;2022-10-22T12:51:41;5.45;;;1.98;;
27305;SDS011;14792;50.886;6.468;2022-10-22T12:54:43;6.30;;;1.50;;
27305;SDS011;14792;50.886;6.468;2022-10-22T12:57:46;7.75;;;1.50;;
27305;SDS011;14792;50.886;6.468;2022-10-22T13:00:47;7.78;;;1.60;;
27305;SDS011;14792;50.886;6.468;2022-10-22T13:03:49;4.42;;;1.10;;
27305;SDS011;14792;50.886;6.468;2022-10-22T13:06:51;5.05;;;1.10;;
27305;SDS011;14792;50.886;6.468;2022-10-22T13:12:57;8.33;;;1.77;;
27305;SDS011;14792;50.886;6.468;2022-10-22T13:16:14;7.53;;;1.02;;
27305;SDS011;14792;50.886;6.468;2022-10-22T13:19:40;7.72;;;1.25;;
27305;SDS011;14792;50.886;6.468;2022-10-22T13:22:56;5.97;;;1.10;;
27305;SDS011;14792;50.886;6.468;2022-10-22T13:26:09;4.85;;;0.82;;
27305;SDS011;14792;50.886;6.468;2022-10-22T13:32:19;5.17;;;1.22;;
27305;SDS011;14792;50.886;6.468;2022-10-22T13:35:11;7.15;;;1.40;;
27305;SDS011;14792;50.886;6.468;2022-10-22T13:38:17;4.47;;;0.80;;
27305;SDS011;14792;50.886;6.468;2022-10-22T13:41:20;6.60;;;1.12;;
27305;SDS011;14792;50.886;6.468;2022-10-22T13:44:18;7.85;;;1.05;;
27305;SDS011;14792;50.886;6.468;2022-10-22T13:47:24;6.35;;;1.30;;
27305;SDS011;14792;50.886;6.468;2022-10-22T13:50:24;6.45;;;1.40;;
27305;SDS011;14792;50.886;6.468;2022-10-22T13:53:26;6.28;;;1.05;;
27305;SDS011;14792;50.886;6.468;2022-10-22T13:56:27;6.08;;;1.37;;
27305;SDS011;14792;50.886;6.468;2022-10-22T13:59:29;6.47;;;1.10;;
27305;SDS011;14792;50.886;6.468;2022-10-22T14:02:31;7.47;;;1.10;;
27305;SDS011;14792;50.886;6.468;2022-10-22T14:08:55;6.03;;;1.35;;
27305;SDS011;14792;50.886;6.468;2022-10-22T14:11:57;3.40;;;1.07;;
27305;SDS011;14792;50.886;6.468;2022-10-22T14:14:59;7.72;;;1.20;;
27305;SDS011;14792;50.886;6.468;2022-10-22T14:18:01;5.83;;;1.05;;
27305;SDS011;14792;50.886;6.468;2022-10-22T14:21:03;4.83;;;1.40;;
27305;SDS011;14792;50.886;6.468;2022-10-22T14:24:05;4.92;;;1.05;;
27305;SDS011;14792;50.886;6.468;2022-10-22T14:27:08;5.53;;;1.12;;
27305;SDS011;14792;50.886;6.468;2022-10-22T14:30:08;4.45;;;1.10;;
27305;SDS011;14792;50.886;6.468;2022-10-22T14:36:17;5.92;;;1.80;;
27305;SDS011;14792;50.886;6.468;2022-10-22T14:39:19;9.05;;;1.25;;
27305;SDS011;14792;50.886;6.468;2022-10-22T14:42:21;6.75;;;1.77;;
27305;SDS011;14792;50.886;6.468;2022-10-22T14:45:24;8.80;;;1.62;;
27305;SDS011;14792;50.886;6.468;2022-10-22T14:48:24;7.70;;;1.85;;
27305;SDS011;14792;50.886;6.468;2022-10-22T14:51:26;5.87;;;1.45;;
27305;SDS011;14792;50.886;6.468;2022-10-22T14:54:27;40.80;;;3.25;;
27305;SDS011;14792;50.886;6.468;2022-10-22T14:57:29;9.75;;;1.40;;
27305;SDS011;14792;50.886;6.468;2022-10-22T15:00:33;6.87;;;1.40;;
27305;SDS011;14792;50.886;6.468;2022-10-22T15:03:35;7.72;;;1.77;;
27305;SDS011;14792;50.886;6.468;2022-10-22T15:06:36;4.30;;;1.37;;
27305;SDS011;14792;50.886;6.468;2022-10-22T15:09:38;6.47;;;1.32;;
27305;SDS011;14792;50.886;6.468;2022-10-22T15:12:39;4.60;;;1.10;;
27305;SDS011;14792;50.886;6.468;2022-10-22T15:15:41;10.05;;;2.58;;
27305;SDS011;14792;50.886;6.468;2022-10-22T15:18:43;7.90;;;3.15;;
27305;SDS011;14792;50.886;6.468;2022-10-22T15:21:44;7.72;;;3.02;;
27305;SDS011;14792;50.886;6.468;2022-10-22T15:24:46;13.10;;;3.20;;
27305;SDS011;14792;50.886;6.468;2022-10-22T15:27:48;7.95;;;2.65;;
27305;SDS011;14792;50.886;6.468;2022-10-22T15:30:51;9.33;;;2.62;;
27305;SDS011;14792;50.886;6.468;2022-10-22T15:33:54;7.85;;;2.20;;
27305;SDS011;14792;50.886;6.468;2022-10-22T15:36:58;8.90;;;2.35;;
27305;SDS011;14792;50.886;6.468;2022-10-22T15:39:58;9.85;;;2.87;;
27305;SDS011;14792;50.886;6.468;2022-10-22T15:42:59;6.92;;;2.10;;
27305;SDS011;14792;50.886;6.468;2022-10-22T15:46:08;9.73;;;2.40;;
27305;SDS011;14792;50.886;6.468;2022-10-22T15:49:09;11.03;;;2.50;;
27305;SDS011;14792;50.886;6.468;2022-10-22T15:52:11;13.60;;;2.20;;
27305;SDS011;14792;50.886;6.468;2022-10-22T15:55:12;9.95;;;2.22;;
27305;SDS011;14792;50.886;6.468;2022-10-22T15:58:14;28.23;;;2.75;;
27305;SDS011;14792;50.886;6.468;2022-10-22T16:01:16;44.48;;;3.35;;
27305;SDS011;14792;50.886;6.468;2022-10-22T16:04:18;8.00;;;2.20;;
27305;SDS011;14792;50.886;6.468;2022-10-22T16:07:19;23.30;;;2.90;;
27305;SDS011;14792;50.886;6.468;2022-10-22T16:10:21;14.78;;;2.72;;
27305;SDS011;14792;50.886;6.468;2022-10-22T16:13:23;9.13;;;2.70;;
27305;SDS011;14792;50.886;6.468;2022-10-22T16:16:25;8.38;;;3.27;;
27305;SDS011;14792;50.886;6.468;2022-10-22T16:19:26;13.55;;;3.70;;
27305;SDS011;14792;50.886;6.468;2022-10-22T16:22:27;9.73;;;3.85;;
27305;SDS011;14792;50.886;6.468;2022-10-22T16:25:29;11.63;;;4.03;;
27305;SDS011;14792;50.886;6.468;2022-10-22T16:28:30;12.18;;;4.37;;
27305;SDS011;14792;50.886;6.468;2022-10-22T16:31:33;17.67;;;5.25;;
27305;SDS011;14792;50.886;6.468;2022-10-22T16:37:36;11.75;;;3.75;;
27305;SDS011;14792;50.886;6.468;2022-10-22T16:40:37;12.35;;;3.15;;
27305;SDS011;14792;50.886;6.468;2022-10-22T16:43:42;9.13;;;3.20;;
27305;SDS011;14792;50.886;6.468;2022-10-22T16:46:43;9.63;;;3.25;;
27305;SDS011;14792;50.886;6.468;2022-10-22T16:49:45;8.25;;;2.95;;
27305;SDS011;14792;50.886;6.468;2022-10-22T16:52:47;12.45;;;3.42;;
27305;SDS011;14792;50.886;6.468;2022-10-22T16:55:48;8.23;;;3.80;;
27305;SDS011;14792;50.886;6.468;2022-10-22T16:58:54;10.13;;;3.50;;
27305;SDS011;14792;50.886;6.468;2022-10-22T17:01:51;7.80;;;3.30;;
27305;SDS011;14792;50.886;6.468;2022-10-22T17:04:53;12.37;;;3.30;;
27305;SDS011;14792;50.886;6.468;2022-10-22T17:07:54;14.47;;;3.10;;
27305;SDS011;14792;50.886;6.468;2022-10-22T17:10:56;10.15;;;2.98;;
27305;SDS011;14792;50.886;6.468;2022-10-22T17:13:58;9.18;;;2.45;;
27305;SDS011;14792;50.886;6.468;2022-10-22T17:16:59;10.58;;;2.20;;
27305;SDS011;14792;50.886;6.468;2022-10-22T17:20:01;8.48;;;2.00;;
27305;SDS011;14792;50.886;6.468;2022-10-22T17:23:03;14.55;;;5.22;;
27305;SDS011;14792;50.886;6.468;2022-10-22T17:26:05;12.10;;;2.52;;
27305;SDS011;14792;50.886;6.468;2022-10-22T17:29:06;13.30;;;5.03;;
27305;SDS011;14792;50.886;6.468;2022-10-22T17:32:08;13.60;;;4.22;;
27305;SDS011;14792;50.886;6.468;2022-10-22T17:35:10;23.12;;;5.83;;
27305;SDS011;14792;50.886;6.468;2022-10-22T17:38:11;8.58;;;2.40;;
27305;SDS011;14792;50.886;6.468;2022-10-22T17:41:15;8.93;;;2.75;;
27305;SDS011;14792;50.886;6.468;2022-10-22T17:44:20;8.33;;;2.10;;
27305;SDS011;14792;50.886;6.468;2022-10-22T17:47:21;8.05;;;2.70;;
27305;SDS011;14792;50.886;6.468;2022-10-22T17:50:23;10.40;;;2.60;;
27305;SDS011;14792;50.886;6.468;2022-10-22T17:53:25;11.08;;;2.22;;
27305;SDS011;14792;50.886;6.468;2022-10-22T17:56:27;10.40;;;2.27;;
27305;SDS011;14792;50.886;6.468;2022-10-22T17:59:28;34.45;;;3.30;;
27305;SDS011;14792;50.886;6.468;2022-10-22T18:02:29;28.73;;;2.50;;
27305;SDS011;14792;50.886;6.468;2022-10-22T18:05:32;14.93;;;3.42;;
27305;SDS011;14792;50.886;6.468;2022-10-22T18:08:33;11.03;;;2.37;;
27305;SDS011;14792;50.886;6.468;2022-10-22T18:11:34;6.83;;;2.33;;
27305;SDS011;14792;50.886;6.468;2022-10-22T18:14:39;6.67;;;1.72;;
27305;SDS011;14792;50.886;6.468;2022-10-22T18:17:40;10.23;;;2.17;;
27305;SDS011;14792;50.886;6.468;2022-10-22T18:20:46;11.20;;;2.20;;
27305;SDS011;14792;50.886;6.468;2022-10-22T18:23:44;8.48;;;2.17;;
27305;SDS011;14792;50.886;6.468;2022-10-22T18:26:45;9.28;;;3.00;;
27305;SDS011;14792;50.886;6.468;2022-10-22T18:29:50;6.90;;;1.98;;
27305;SDS011;14792;50.886;6.468;2022-10-22T18:32:51;6.25;;;2.10;;
27305;SDS011;14792;50.886;6.468;2022-10-22T18:35:53;7.75;;;2.20;;
27305;SDS011;14792;50.886;6.468;2022-10-22T18:38:55;7.25;;;3.17;;
27305;SDS011;14792;50.886;6.468;2022-10-22T18:41:56;15.25;;;3.20;;
27305;SDS011;14792;50.886;6.468;2022-10-22T18:44:57;10.05;;;3.17;;
27305;SDS011;14792;50.886;6.468;2022-10-22T18:47:59;15.45;;;5.15;;
27305;SDS011;14792;50.886;6.468;2022-10-22T18:51:04;7.53;;;3.50;;
27305;SDS011;14792;50.886;6.468;2022-10-22T18:54:05;8.33;;;2.17;;
27305;SDS011;14792;50.886;6.468;2022-10-22T18:57:07;6.75;;;2.00;;
27305;SDS011;14792;50.886;6.468;2022-10-22T19:00:09;8.70;;;2.02;;
27305;SDS011;14792;50.886;6.468;2022-10-22T19:03:11;8.35;;;1.85;;
27305;SDS011;14792;50.886;6.468;2022-10-22T19:06:12;7.08;;;1.47;;
27305;SDS011;14792;50.886;6.468;2022-10-22T19:09:13;6.72;;;1.85;;
27305;SDS011;14792;50.886;6.468;2022-10-22T19:12:15;14.58;;;4.87;;
27305;SDS011;14792;50.886;6.468;2022-10-22T19:15:17;10.15;;;2.62;;
27305;SDS011;14792;50.886;6.468;2022-10-22T19:18:18;7.92;;;2.40;;
27305;SDS011;14792;50.886;6.468;2022-10-22T19:21:20;9.40;;;1.80;;
27305;SDS011;14792;50.886;6.468;2022-10-22T19:24:21;8.88;;;2.40;;